sensor_id;sensor_type;location;lat;lon;timestamp;pressure;altitude;pressure_sealevel;temperature;humidity
8069;BME280;4077;43.702;24.896;2023-04-07T00:00:20;99232.38;;;3.75;91.30
8069;BME280;4077;43.702;24.896;2023-04-07T00:02:45;99241.16;;;3.83;91.76
8069;BME280;4077;43.702;24.896;2023-04-07T00:05:13;99242.75;;;3.80;92.44
8069;BME280;4077;43.702;24.896;2023-04-07T00:07:38;99235.69;;;3.73;92.58
8069;BME280;4077;43.702;24.896;2023-04-07T00:10:05;99229.75;;;3.74;92.87
8069;BME280;4077;43.702;24.896;2023-04-07T00:12:31;99226.19;;;3.69;92.19
8069;BME280;4077;43.702;24.896;2023-04-07T00:14:56;99225.25;;;3.67;92.51
8069;BME280;4077;43.702;24.896;2023-04-07T00:17:21;99230.31;;;3.65;93.22
8069;BME280;4077;43.702;24.896;2023-04-07T00:19:47;99223.28;;;3.58;92.94
8069;BME280;4077;43.702;24.896;2023-04-07T00:22:12;99223.19;;;3.56;92.91
8069;BME280;4077;43.702;24.896;2023-04-07T00:24:38;99216.34;;;3.55;93.70
8069;BME280;4077;43.702;24.896;2023-04-07T00:27:03;99215.53;;;3.56;92.84
8069;BME280;4077;43.702;24.896;2023-04-07T00:29:29;99222.47;;;3.59;92.67
8069;BME280;4077;43.702;24.896;2023-04-07T00:31:54;99210.31;;;3.52;92.39
8069;BME280;4077;43.702;24.896;2023-04-07T00:34:20;99214.69;;;3.56;91.82
8069;BME280;4077;43.702;24.896;2023-04-07T00:36:45;99226.75;;;3.60;91.25
8069;BME280;4077;43.702;24.896;2023-04-07T00:39:16;99227.56;;;3.59;90.99
8069;BME280;4077;43.702;24.896;2023-04-07T00:41:42;99213.75;;;3.54;91.16
8069;BME280;4077;43.702;24.896;2023-04-07T00:44:07;99222.25;;;3.53;92.54
8069;BME280;4077;43.702;24.896;2023-04-07T00:46:33;99222.03;;;3.47;92.60
8069;BME280;4077;43.702;24.896;2023-04-07T00:48:59;99227.28;;;3.51;93.34
8069;BME280;4077;43.702;24.896;2023-04-07T00:51:25;99224.56;;;3.47;93.75
8069;BME280;4077;43.702;24.896;2023-04-07T00:53:51;99214.06;;;3.38;93.77
8069;BME280;4077;43.702;24.896;2023-04-07T00:56:17;99215.78;;;3.39;92.09
8069;BME280;4077;43.702;24.896;2023-04-07T00:58:42;99219.38;;;3.44;91.89
8069;BME280;4077;43.702;24.896;2023-04-07T01:01:11;99217.81;;;3.49;91.70
8069;BME280;4077;43.702;24.896;2023-04-07T01:03:52;99220.59;;;3.55;91.07
8069;BME280;4077;43.702;24.896;2023-04-07T01:06:23;99222.47;;;3.59;88.72
8069;BME280;4077;43.702;24.896;2023-04-07T01:09:12;99222.72;;;3.67;87.37
8069;BME280;4077;43.702;24.896;2023-04-07T01:11:58;99220.81;;;3.61;86.47
8069;BME280;4077;43.702;24.896;2023-04-07T01:14:31;99223.38;;;3.61;85.87
8069;BME280;4077;43.702;24.896;2023-04-07T01:17:00;99222.53;;;3.62;85.33
8069;BME280;4077;43.702;24.896;2023-04-07T01:19:39;99218.88;;;3.54;85.28
8069;BME280;4077;43.702;24.896;2023-04-07T01:22:12;99219.72;;;3.54;85.29
8069;BME280;4077;43.702;24.896;2023-04-07T01:29:53;99221.19;;;3.48;85.08
8069;BME280;4077;43.702;24.896;2023-04-07T01:32:19;99220.38;;;3.49;84.74
8069;BME280;4077;43.702;24.896;2023-04-07T01:34:47;99224.78;;;3.53;84.31
8069;BME280;4077;43.702;24.896;2023-04-07T01:37:13;99218.78;;;3.51;83.48
8069;BME280;4077;43.702;24.896;2023-04-07T01:39:40;99209.91;;;3.41;83.40
8069;BME280;4077;43.702;24.896;2023-04-07T01:42:06;99224.66;;;3.50;82.65
8069;BME280;4077;43.702;24.896;2023-04-07T01:44:32;99219.47;;;3.47;82.96
8069;BME280;4077;43.702;24.896;2023-04-07T01:46:58;99205.59;;;3.39;83.79
8069;BME280;4077;43.702;24.896;2023-04-07T01:49:25;99228.97;;;3.51;83.22
8069;BME280;4077;43.702;24.896;2023-04-07T01:51:52;99228.81;;;3.46;83.15
8069;BME280;4077;43.702;24.896;2023-04-07T01:54:18;99234.88;;;3.50;84.11
8069;BME280;4077;43.702;24.896;2023-04-07T01:56:44;99222.03;;;3.47;83.04
8069;BME280;4077;43.702;24.896;2023-04-07T01:59:10;99220.16;;;3.43;83.95
8069;BME280;4077;43.702;24.896;2023-04-07T02:01:36;99216.59;;;3.38;84.87
8069;BME280;4077;43.702;24.896;2023-04-07T02:06:40;99215.88;;;3.42;84.71
8069;BME280;4077;43.702;24.896;2023-04-07T02:09:09;99214.06;;;3.38;85.17
8069;BME280;4077;43.702;24.896;2023-04-07T02:11:36;99213.84;;;3.32;85.91
8069;BME280;4077;43.702;24.896;2023-04-07T02:14:03;99205.91;;;3.24;85.84
8069;BME280;4077;43.702;24.896;2023-04-07T02:16:31;99228.13;;;3.28;85.84
8069;BME280;4077;43.702;24.896;2023-04-07T02:18:57;99226.41;;;3.27;86.49
8069;BME280;4077;43.702;24.896;2023-04-07T02:21:24;99210.25;;;3.26;86.98
8069;BME280;4077;43.702;24.896;2023-04-07T02:23:51;99221.31;;;3.27;87.55
8069;BME280;4077;43.702;24.896;2023-04-07T02:26:16;99219.53;;;3.24;88.09
8069;BME280;4077;43.702;24.896;2023-04-07T02:28:42;99211.53;;;3.15;88.44
8069;BME280;4077;43.702;24.896;2023-04-07T02:31:07;99226.38;;;3.25;88.19
8069;BME280;4077;43.702;24.896;2023-04-07T02:33:33;99213.38;;;3.19;89.46
8069;BME280;4077;43.702;24.896;2023-04-07T02:35:58;99212.78;;;3.26;87.90
8069;BME280;4077;43.702;24.896;2023-04-07T02:38:23;99212.91;;;3.29;87.62
8069;BME280;4077;43.702;24.896;2023-04-07T02:40:50;99215.47;;;3.29;86.77
8069;BME280;4077;43.702;24.896;2023-04-07T02:43:15;99213.78;;;3.30;87.09
8069;BME280;4077;43.702;24.896;2023-04-07T02:45:42;99218.13;;;3.33;86.66
8069;BME280;4077;43.702;24.896;2023-04-07T02:48:07;99225.00;;;3.35;86.88
8069;BME280;4077;43.702;24.896;2023-04-07T02:50:32;99219.16;;;3.38;88.47
8069;BME280;4077;43.702;24.896;2023-04-07T02:52:58;99214.78;;;3.35;87.54
8069;BME280;4077;43.702;24.896;2023-04-07T02:55:23;99220.75;;;3.36;88.81
8069;BME280;4077;43.702;24.896;2023-04-07T02:57:49;99230.09;;;3.35;89.12
8069;BME280;4077;43.702;24.896;2023-04-07T03:00:14;99225.72;;;3.31;91.56
8069;BME280;4077;43.702;24.896;2023-04-07T03:02:40;99229.78;;;3.26;91.70
8069;BME280;4077;43.702;24.896;2023-04-07T03:05:06;99225.44;;;3.23;93.82
8069;BME280;4077;43.702;24.896;2023-04-07T03:07:31;99230.41;;;3.20;95.11
8069;BME280;4077;43.702;24.896;2023-04-07T03:09:57;99229.56;;;3.20;94.35
8069;BME280;4077;43.702;24.896;2023-04-07T03:12:22;99231.19;;;3.18;93.40
8069;BME280;4077;43.702;24.896;2023-04-07T03:14:48;99233.78;;;3.19;96.08
8069;BME280;4077;43.702;24.896;2023-04-07T03:17:13;99234.69;;;3.21;95.05
8069;BME280;4077;43.702;24.896;2023-04-07T03:19:39;99243.22;;;3.22;93.65
8069;BME280;4077;43.702;24.896;2023-04-07T03:22:05;99237.25;;;3.21;93.19
8069;BME280;4077;43.702;24.896;2023-04-07T03:24:30;99233.88;;;3.22;93.55
8069;BME280;4077;43.702;24.896;2023-04-07T03:26:56;99243.63;;;3.33;92.81
8069;BME280;4077;43.702;24.896;2023-04-07T03:29:21;99242.81;;;3.34;92.05
8069;BME280;4077;43.702;24.896;2023-04-07T03:31:47;99243.81;;;3.37;91.85
8069;BME280;4077;43.702;24.896;2023-04-07T03:34:12;99246.63;;;3.45;90.62
8069;BME280;4077;43.702;24.896;2023-04-07T03:36:38;99231.19;;;3.42;89.63
8069;BME280;4077;43.702;24.896;2023-04-07T03:39:03;99250.19;;;3.50;90.18
8069;BME280;4077;43.702;24.896;2023-04-07T03:41:29;99254.72;;;3.57;89.10
8069;BME280;4077;43.702;24.896;2023-04-07T03:43:54;99256.44;;;3.58;89.15
8069;BME280;4077;43.702;24.896;2023-04-07T03:46:20;99251.25;;;3.56;88.16
8069;BME280;4077;43.702;24.896;2023-04-07T03:48:45;99259.81;;;3.57;88.97
8069;BME280;4077;43.702;24.896;2023-04-07T03:51:11;99261.69;;;3.63;88.16
8069;BME280;4077;43.702;24.896;2023-04-07T03:53:37;99265.94;;;3.62;88.22
8069;BME280;4077;43.702;24.896;2023-04-07T03:56:03;99250.53;;;3.59;87.64
8069;BME280;4077;43.702;24.896;2023-04-07T03:58:28;99267.13;;;3.72;88.07
8069;BME280;4077;43.702;24.896;2023-04-07T04:00:54;99269.97;;;3.79;87.01
8069;BME280;4077;43.702;24.896;2023-04-07T04:03:19;99268.44;;;3.84;86.21
8069;BME280;4077;43.702;24.896;2023-04-07T04:05:45;99270.25;;;3.89;85.47
8069;BME280;4077;43.702;24.896;2023-04-07T04:08:10;99276.19;;;3.88;84.89
8069;BME280;4077;43.702;24.896;2023-04-07T04:10:36;99277.97;;;3.90;84.68
8069;BME280;4077;43.702;24.896;2023-04-07T04:13:01;99269.31;;;3.85;85.29
8069;BME280;4077;43.702;24.896;2023-04-07T04:15:30;99274.13;;;3.77;86.21
8069;BME280;4077;43.702;24.896;2023-04-07T04:17:56;99282.66;;;3.78;86.59
8069;BME280;4077;43.702;24.896;2023-04-07T04:20:21;99285.22;;;3.78;86.62
8069;BME280;4077;43.702;24.896;2023-04-07T04:22:47;99290.47;;;3.82;86.99
8069;BME280;4077;43.702;24.896;2023-04-07T04:25:12;99280.25;;;3.82;85.65
8069;BME280;4077;43.702;24.896;2023-04-07T04:27:38;99296.09;;;3.98;85.27
8069;BME280;4077;43.702;24.896;2023-04-07T04:30:04;99293.06;;;4.08;85.21
8069;BME280;4077;43.702;24.896;2023-04-07T04:32:29;99300.19;;;4.18;84.49
8069;BME280;4077;43.702;24.896;2023-04-07T04:34:55;99303.13;;;4.29;82.88
8069;BME280;4077;43.702;24.896;2023-04-07T04:37:20;99298.88;;;4.29;82.04
8069;BME280;4077;43.702;24.896;2023-04-07T04:39:46;99311.25;;;4.43;82.31
8069;BME280;4077;43.702;24.896;2023-04-07T04:42:11;99312.97;;;4.44;81.81
8069;BME280;4077;43.702;24.896;2023-04-07T04:44:36;99314.72;;;4.45;82.07
8069;BME280;4077;43.702;24.896;2023-04-07T04:47:02;99324.94;;;4.45;82.91
8069;BME280;4077;43.702;24.896;2023-04-07T04:49:27;99321.47;;;4.43;82.94
8069;BME280;4077;43.702;24.896;2023-04-07T04:51:53;99320.59;;;4.42;83.25
8069;BME280;4077;43.702;24.896;2023-04-07T04:54:18;99328.44;;;4.47;83.65
8069;BME280;4077;43.702;24.896;2023-04-07T04:56:44;99325.78;;;4.45;83.89
8069;BME280;4077;43.702;24.896;2023-04-07T04:59:09;99328.09;;;4.37;85.05
8069;BME280;4077;43.702;24.896;2023-04-07T05:01:35;99327.88;;;4.31;84.93
8069;BME280;4077;43.702;24.896;2023-04-07T05:04:00;99335.44;;;4.27;85.80
8069;BME280;4077;43.702;24.896;2023-04-07T05:06:26;99337.03;;;4.25;86.06
8069;BME280;4077;43.702;24.896;2023-04-07T05:08:52;99346.59;;;4.30;86.86
8069;BME280;4077;43.702;24.896;2023-04-07T05:11:17;99336.38;;;4.30;85.91
8069;BME280;4077;43.702;24.896;2023-04-07T05:13:43;99355.38;;;4.38;85.19
8069;BME280;4077;43.702;24.896;2023-04-07T05:16:09;99354.63;;;4.41;86.07
8069;BME280;4077;43.702;24.896;2023-04-07T05:18:34;99360.03;;;4.50;86.13
8069;BME280;4077;43.702;24.896;2023-04-07T05:20:59;99374.06;;;4.61;85.09
8069;BME280;4077;43.702;24.896;2023-04-07T05:23:26;99363.09;;;4.65;85.40
8069;BME280;4077;43.702;24.896;2023-04-07T05:25:51;99357.31;;;4.71;83.63
8069;BME280;4077;43.702;24.896;2023-04-07T05:28:17;99367.34;;;4.90;83.95
8069;BME280;4077;43.702;24.896;2023-04-07T05:30:43;99360.50;;;4.89;82.53
8069;BME280;4077;43.702;24.896;2023-04-07T05:33:08;99375.19;;;4.97;81.50
8069;BME280;4077;43.702;24.896;2023-04-07T05:35:34;99372.88;;;5.04;82.74
8069;BME280;4077;43.702;24.896;2023-04-07T05:37:59;99371.47;;;5.14;81.03
8069;BME280;4077;43.702;24.896;2023-04-07T05:40:25;99373.50;;;5.24;81.59
8069;BME280;4077;43.702;24.896;2023-04-07T05:42:50;99379.19;;;5.42;79.95
8069;BME280;4077;43.702;24.896;2023-04-07T05:45:15;99383.25;;;5.64;79.08
8069;BME280;4077;43.702;24.896;2023-04-07T05:47:41;99387.75;;;6.01;77.66
8069;BME280;4077;43.702;24.896;2023-04-07T05:50:07;99385.94;;;6.62;73.72
8069;BME280;4077;43.702;24.896;2023-04-07T05:52:33;99391.03;;;6.94;71.35
8069;BME280;4077;43.702;24.896;2023-04-07T05:54:58;99406.31;;;7.27;68.36
8069;BME280;4077;43.702;24.896;2023-04-07T05:57:24;99383.22;;;7.64;66.13
8069;BME280;4077;43.702;24.896;2023-04-07T05:59:51;99402.16;;;7.70;64.90
8069;BME280;4077;43.702;24.896;2023-04-07T06:02:17;99397.41;;;7.88;63.17
8069;BME280;4077;43.702;24.896;2023-04-07T06:04:42;99402.44;;;8.24;62.23
8069;BME280;4077;43.702;24.896;2023-04-07T06:07:08;99403.03;;;8.12;61.61
8069;BME280;4077;43.702;24.896;2023-04-07T06:09:33;99405.19;;;8.35;60.46
8069;BME280;4077;43.702;24.896;2023-04-07T06:11:58;99413.00;;;8.38;60.11
8069;BME280;4077;43.702;24.896;2023-04-07T06:14:25;99406.28;;;8.46;59.59
8069;BME280;4077;43.702;24.896;2023-04-07T06:16:51;99410.19;;;8.27;59.70
8069;BME280;4077;43.702;24.896;2023-04-07T06:19:16;99411.00;;;8.25;59.19
8069;BME280;4077;43.702;24.896;2023-04-07T06:21:42;99421.16;;;8.62;58.90
8069;BME280;4077;43.702;24.896;2023-04-07T06:24:07;99423.47;;;8.97;57.80
8069;BME280;4077;43.702;24.896;2023-04-07T06:26:33;99423.81;;;9.18;57.49
8069;BME280;4077;43.702;24.896;2023-04-07T06:28:58;99423.88;;;9.21;56.66
8069;BME280;4077;43.702;24.896;2023-04-07T06:31:24;99426.78;;;9.43;56.16
8069;BME280;4077;43.702;24.896;2023-04-07T06:33:51;99424.47;;;9.61;55.88
8069;BME280;4077;43.702;24.896;2023-04-07T06:36:16;99423.38;;;9.44;56.38
8069;BME280;4077;43.702;24.896;2023-04-07T06:38:42;99429.06;;;9.82;55.69
8069;BME280;4077;43.702;24.896;2023-04-07T06:41:07;99436.16;;;10.01;54.74
8069;BME280;4077;43.702;24.896;2023-04-07T06:43:37;99426.53;;;9.86;54.33
8069;BME280;4077;43.702;24.896;2023-04-07T06:46:02;99431.00;;;10.01;54.49
8069;BME280;4077;43.702;24.896;2023-04-07T06:48:28;99422.69;;;9.57;55.17
8069;BME280;4077;43.702;24.896;2023-04-07T06:50:53;99440.75;;;9.58;55.63
8069;BME280;4077;43.702;24.896;2023-04-07T06:53:19;99441.38;;;10.04;54.69
8069;BME280;4077;43.702;24.896;2023-04-07T06:55:45;99440.59;;;10.10;54.34
8069;BME280;4077;43.702;24.896;2023-04-07T06:58:10;99436.72;;;9.77;54.66
8069;BME280;4077;43.702;24.896;2023-04-07T07:00:36;99434.59;;;9.49;55.74
8069;BME280;4077;43.702;24.896;2023-04-07T07:03:01;99440.63;;;9.48;55.40
8069;BME280;4077;43.702;24.896;2023-04-07T07:05:27;99441.00;;;9.75;55.79
8069;BME280;4077;43.702;24.896;2023-04-07T07:07:52;99447.31;;;9.96;55.53
8069;BME280;4077;43.702;24.896;2023-04-07T07:10:18;99455.41;;;10.23;54.50
8069;BME280;4077;43.702;24.896;2023-04-07T07:12:48;99446.66;;;9.50;54.59
8069;BME280;4077;43.702;24.896;2023-04-07T07:15:13;99453.72;;;9.09;55.29
8069;BME280;4077;43.702;24.896;2023-04-07T07:17:39;99445.03;;;9.58;55.07
8069;BME280;4077;43.702;24.896;2023-04-07T07:20:05;99457.03;;;9.56;54.99
8069;BME280;4077;43.702;24.896;2023-04-07T07:22:31;99474.03;;;9.45;55.05
8069;BME280;4077;43.702;24.896;2023-04-07T07:24:56;99466.41;;;9.52;55.03
8069;BME280;4077;43.702;24.896;2023-04-07T07:27:22;99465.50;;;8.94;55.44
8069;BME280;4077;43.702;24.896;2023-04-07T07:29:47;99454.84;;;8.74;56.08
8069;BME280;4077;43.702;24.896;2023-04-07T07:32:13;99472.75;;;8.70;56.68
8069;BME280;4077;43.702;24.896;2023-04-07T07:34:38;99464.00;;;8.59;57.13
8069;BME280;4077;43.702;24.896;2023-04-07T07:37:04;99454.50;;;8.58;57.24
8069;BME280;4077;43.702;24.896;2023-04-07T07:39:29;99457.50;;;8.35;58.66
8069;BME280;4077;43.702;24.896;2023-04-07T07:41:54;99463.31;;;8.27;58.51
8069;BME280;4077;43.702;24.896;2023-04-07T07:44:20;99456.91;;;8.06;59.21
8069;BME280;4077;43.702;24.896;2023-04-07T07:46:47;99462.47;;;7.87;59.71
8069;BME280;4077;43.702;24.896;2023-04-07T07:49:13;99463.13;;;7.77;60.29
8069;BME280;4077;43.702;24.896;2023-04-07T07:51:39;99470.75;;;8.13;60.28
8069;BME280;4077;43.702;24.896;2023-04-07T07:54:04;99476.59;;;8.46;59.22
8069;BME280;4077;43.702;24.896;2023-04-07T07:56:30;99466.75;;;8.69;58.63
8069;BME280;4077;43.702;24.896;2023-04-07T07:58:55;99469.66;;;8.88;59.12
8069;BME280;4077;43.702;24.896;2023-04-07T08:01:20;99484.22;;;9.37;58.90
8069;BME280;4077;43.702;24.896;2023-04-07T08:03:46;99475.50;;;9.27;57.81
8069;BME280;4077;43.702;24.896;2023-04-07T08:06:11;99463.81;;;9.51;58.45
8069;BME280;4077;43.702;24.896;2023-04-07T08:08:37;99477.25;;;9.87;57.77
8069;BME280;4077;43.702;24.896;2023-04-07T08:11:03;99477.09;;;10.40;58.50
8069;BME280;4077;43.702;24.896;2023-04-07T08:13:28;99474.13;;;10.10;56.68
8069;BME280;4077;43.702;24.896;2023-04-07T08:15:54;99473.47;;;10.23;55.90
8069;BME280;4077;43.702;24.896;2023-04-07T08:18:20;99478.91;;;9.82;57.73
8069;BME280;4077;43.702;24.896;2023-04-07T08:20:45;99478.72;;;9.69;58.84
8069;BME280;4077;43.702;24.896;2023-04-07T08:23:11;99472.69;;;9.68;58.23
8069;BME280;4077;43.702;24.896;2023-04-07T08:25:37;99476.06;;;9.64;58.81
8069;BME280;4077;43.702;24.896;2023-04-07T08:28:04;99483.53;;;10.08;58.62
8069;BME280;4077;43.702;24.896;2023-04-07T08:30:30;99485.84;;;10.50;57.54
8069;BME280;4077;43.702;24.896;2023-04-07T08:32:56;99475.97;;;10.22;57.17
8069;BME280;4077;43.702;24.896;2023-04-07T08:35:21;99480.69;;;9.88;57.29
8069;BME280;4077;43.702;24.896;2023-04-07T08:37:47;99481.25;;;9.67;57.88
8069;BME280;4077;43.702;24.896;2023-04-07T08:40:13;99474.72;;;9.91;57.72
8069;BME280;4077;43.702;24.896;2023-04-07T08:42:41;99486.22;;;10.15;59.59
8069;BME280;4077;43.702;24.896;2023-04-07T08:45:08;99486.09;;;10.75;57.35
8069;BME280;4077;43.702;24.896;2023-04-07T08:47:35;99493.84;;;10.76;57.65
8069;BME280;4077;43.702;24.896;2023-04-07T08:50:08;99500.56;;;10.59;56.79
8069;BME280;4077;43.702;24.896;2023-04-07T08:52:39;99498.28;;;10.88;58.42
8069;BME280;4077;43.702;24.896;2023-04-07T08:55:06;99495.81;;;10.99;57.34
8069;BME280;4077;43.702;24.896;2023-04-07T08:57:33;99497.69;;;11.16;55.79
8069;BME280;4077;43.702;24.896;2023-04-07T09:00:00;99505.66;;;11.39;56.29
8069;BME280;4077;43.702;24.896;2023-04-07T09:02:33;99504.66;;;11.23;55.62
8069;BME280;4077;43.702;24.896;2023-04-07T09:05:00;99505.09;;;10.81;56.11
8069;BME280;4077;43.702;24.896;2023-04-07T09:07:27;99498.41;;;10.99;57.62
8069;BME280;4077;43.702;24.896;2023-04-07T09:09:53;99500.13;;;11.00;56.15
8069;BME280;4077;43.702;24.896;2023-04-07T09:12:19;99508.78;;;11.05;56.02
8069;BME280;4077;43.702;24.896;2023-04-07T09:14:45;99504.63;;;11.20;55.61
8069;BME280;4077;43.702;24.896;2023-04-07T09:17:10;99510.75;;;11.30;56.56
8069;BME280;4077;43.702;24.896;2023-04-07T09:19:36;99502.53;;;10.83;56.46
8069;BME280;4077;43.702;24.896;2023-04-07T09:22:01;99487.44;;;10.40;56.72
8069;BME280;4077;43.702;24.896;2023-04-07T09:24:28;99512.69;;;10.67;57.90
8069;BME280;4077;43.702;24.896;2023-04-07T09:27:12;99513.63;;;10.74;57.42
8069;BME280;4077;43.702;24.896;2023-04-07T09:29:40;99513.22;;;10.37;57.47
8069;BME280;4077;43.702;24.896;2023-04-07T09:32:06;99510.25;;;10.11;56.83
8069;BME280;4077;43.702;24.896;2023-04-07T09:34:34;99499.06;;;10.11;58.60
8069;BME280;4077;43.702;24.896;2023-04-07T09:37:00;99510.84;;;9.94;58.40
8069;BME280;4077;43.702;24.896;2023-04-07T09:39:26;99503.47;;;10.20;58.14
8069;BME280;4077;43.702;24.896;2023-04-07T09:41:52;99508.75;;;10.26;57.29
8069;BME280;4077;43.702;24.896;2023-04-07T09:44:18;99504.44;;;10.23;59.00
8069;BME280;4077;43.702;24.896;2023-04-07T09:46:52;99497.03;;;9.89;59.91
8069;BME280;4077;43.702;24.896;2023-04-07T09:49:18;99497.03;;;9.89;59.52
8069;BME280;4077;43.702;24.896;2023-04-07T09:51:58;99500.47;;;10.53;60.22
8069;BME280;4077;43.702;24.896;2023-04-07T09:54:38;99504.16;;;10.73;59.46
8069;BME280;4077;43.702;24.896;2023-04-07T09:57:06;99501.50;;;10.67;57.74
8069;BME280;4077;43.702;24.896;2023-04-07T09:59:33;99516.81;;;10.52;57.04
8069;BME280;4077;43.702;24.896;2023-04-07T10:01:59;99508.25;;;9.91;57.65
8069;BME280;4077;43.702;24.896;2023-04-07T10:04:26;99516.72;;;9.83;58.95
8069;BME280;4077;43.702;24.896;2023-04-07T10:06:52;99514.06;;;9.77;58.24
8069;BME280;4077;43.702;24.896;2023-04-07T10:09:26;99505.94;;;10.09;56.75
8069;BME280;4077;43.702;24.896;2023-04-07T10:11:53;99518.31;;;10.34;56.18
8069;BME280;4077;43.702;24.896;2023-04-07T10:14:20;99503.03;;;9.87;57.75
8069;BME280;4077;43.702;24.896;2023-04-07T10:16:46;99511.00;;;10.04;59.53
8069;BME280;4077;43.702;24.896;2023-04-07T10:19:13;99503.19;;;10.00;60.28
8069;BME280;4077;43.702;24.896;2023-04-07T10:21:40;99517.13;;;10.11;60.76
8069;BME280;4077;43.702;24.896;2023-04-07T10:24:32;99520.00;;;10.32;59.82
8069;BME280;4077;43.702;24.896;2023-04-07T10:27:08;99514.50;;;10.75;60.13
8069;BME280;4077;43.702;24.896;2023-04-07T10:29:39;99521.38;;;10.73;59.67
8069;BME280;4077;43.702;24.896;2023-04-07T10:32:06;99516.63;;;10.36;60.13
8069;BME280;4077;43.702;24.896;2023-04-07T10:34:54;99522.59;;;10.31;60.78
8069;BME280;4077;43.702;24.896;2023-04-07T10:37:23;99509.47;;;10.17;60.13
8069;BME280;4077;43.702;24.896;2023-04-07T10:39:50;99521.66;;;10.27;59.09
8069;BME280;4077;43.702;24.896;2023-04-07T10:45:09;99524.81;;;10.08;58.48
8069;BME280;4077;43.702;24.896;2023-04-07T10:50:24;99535.75;;;9.93;57.28
8069;BME280;4077;43.702;24.896;2023-04-07T10:55:44;99541.53;;;10.34;57.50
8069;BME280;4077;43.702;24.896;2023-04-07T11:03:35;99542.88;;;9.53;61.25
8069;BME280;4077;43.702;24.896;2023-04-07T11:06:08;99538.81;;;9.16;62.69
8069;BME280;4077;43.702;24.896;2023-04-07T11:11:05;99552.41;;;8.64;65.59
8069;BME280;4077;43.702;24.896;2023-04-07T11:13:41;99544.47;;;8.53;65.62
8069;BME280;4077;43.702;24.896;2023-04-07T11:16:07;99556.63;;;8.60;66.00
8069;BME280;4077;43.702;24.896;2023-04-07T11:18:33;99534.25;;;8.56;64.84
8069;BME280;4077;43.702;24.896;2023-04-07T11:20:59;99518.50;;;8.41;63.93
8069;BME280;4077;43.702;24.896;2023-04-07T11:23:25;99557.19;;;8.88;64.92
8069;BME280;4077;43.702;24.896;2023-04-07T11:25:58;99557.34;;;8.97;64.89
8069;BME280;4077;43.702;24.896;2023-04-07T11:28:25;99550.69;;;9.08;64.24
8069;BME280;4077;43.702;24.896;2023-04-07T11:30:52;99552.59;;;9.18;64.41
8069;BME280;4077;43.702;24.896;2023-04-07T11:33:23;99564.78;;;9.28;64.83
8069;BME280;4077;43.702;24.896;2023-04-07T11:35:49;99564.84;;;9.31;65.40
8069;BME280;4077;43.702;24.896;2023-04-07T11:38:15;99569.63;;;9.12;65.14
8069;BME280;4077;43.702;24.896;2023-04-07T11:40:41;99568.94;;;9.20;66.31
8069;BME280;4077;43.702;24.896;2023-04-07T11:43:26;99559.88;;;9.41;66.86
8069;BME280;4077;43.702;24.896;2023-04-07T11:46:14;99576.97;;;9.39;66.38
8069;BME280;4077;43.702;24.896;2023-04-07T11:48:42;99575.22;;;9.35;64.47
8069;BME280;4077;43.702;24.896;2023-04-07T11:51:18;99566.81;;;9.46;62.39
8069;BME280;4077;43.702;24.896;2023-04-07T11:53:44;99562.53;;;9.47;63.38
8069;BME280;4077;43.702;24.896;2023-04-07T11:56:15;99555.63;;;9.44;63.86
8069;BME280;4077;43.702;24.896;2023-04-07T12:01:13;99568.94;;;9.70;62.25
8069;BME280;4077;43.702;24.896;2023-04-07T12:03:58;99562.00;;;9.66;61.77
8069;BME280;4077;43.702;24.896;2023-04-07T12:06:34;99563.06;;;9.79;61.35
8069;BME280;4077;43.702;24.896;2023-04-07T12:09:06;99565.28;;;10.12;60.59
8069;BME280;4077;43.702;24.896;2023-04-07T12:11:33;99556.16;;;9.76;59.91
8069;BME280;4077;43.702;24.896;2023-04-07T12:13:59;99551.97;;;9.83;60.56
8069;BME280;4077;43.702;24.896;2023-04-07T12:16:25;99558.22;;;10.02;61.21
8069;BME280;4077;43.702;24.896;2023-04-07T12:18:51;99567.47;;;9.87;60.75
8069;BME280;4077;43.702;24.896;2023-04-07T12:21:17;99562.72;;;10.15;60.01
8069;BME280;4077;43.702;24.896;2023-04-07T12:23:43;99561.53;;;9.90;60.29
8069;BME280;4077;43.702;24.896;2023-04-07T12:26:09;99557.03;;;9.78;61.53
8069;BME280;4077;43.702;24.896;2023-04-07T12:28:36;99553.78;;;9.89;61.23
8069;BME280;4077;43.702;24.896;2023-04-07T12:31:02;99536.47;;;9.81;62.82
8069;BME280;4077;43.702;24.896;2023-04-07T12:33:27;99544.13;;;9.77;61.75
8069;BME280;4077;43.702;24.896;2023-04-07T12:35:53;99546.69;;;9.75;62.86
8069;BME280;4077;43.702;24.896;2023-04-07T12:38:19;99558.03;;;9.88;62.71
8069;BME280;4077;43.702;24.896;2023-04-07T12:40:45;99549.28;;;9.75;62.20
8069;BME280;4077;43.702;24.896;2023-04-07T12:43:11;99555.97;;;9.67;62.67
8069;BME280;4077;43.702;24.896;2023-04-07T12:45:36;99560.03;;;10.06;71.93
8069;BME280;4077;43.702;24.896;2023-04-07T12:48:02;99562.69;;;10.12;61.23
8069;BME280;4077;43.702;24.896;2023-04-07T12:50:28;99571.31;;;10.12;61.02
8069;BME280;4077;43.702;24.896;2023-04-07T12:52:54;99572.25;;;10.18;61.86
8069;BME280;4077;43.702;24.896;2023-04-07T12:55:21;99575.66;;;10.17;61.54
8069;BME280;4077;43.702;24.896;2023-04-07T12:57:46;99574.31;;;9.85;62.04
8069;BME280;4077;43.702;24.896;2023-04-07T13:00:13;99585.66;;;9.95;61.54
8069;BME280;4077;43.702;24.896;2023-04-07T13:02:38;99576.88;;;9.82;60.89
8069;BME280;4077;43.702;24.896;2023-04-07T13:05:05;99586.34;;;9.85;60.22
8069;BME280;4077;43.702;24.896;2023-04-07T13:07:31;99587.06;;;9.75;60.49
8069;BME280;4077;43.702;24.896;2023-04-07T13:09:59;99569.03;;;9.75;61.56
8069;BME280;4077;43.702;24.896;2023-04-07T13:12:24;99591.31;;;9.74;61.80
8069;BME280;4077;43.702;24.896;2023-04-07T13:14:50;99585.41;;;9.80;61.83
8069;BME280;4077;43.702;24.896;2023-04-07T13:17:15;99595.69;;;9.77;62.60
8069;BME280;4077;43.702;24.896;2023-04-07T13:19:42;99585.28;;;9.72;62.87
8069;BME280;4077;43.702;24.896;2023-04-07T13:22:11;99584.50;;;9.76;63.10
8069;BME280;4077;43.702;24.896;2023-04-07T13:24:36;99583.75;;;9.82;62.00
8069;BME280;4077;43.702;24.896;2023-04-07T13:27:02;99602.00;;;9.96;61.41
8069;BME280;4077;43.702;24.896;2023-04-07T13:29:27;99614.19;;;10.06;61.91
8069;BME280;4077;43.702;24.896;2023-04-07T13:32:03;99598.47;;;9.91;62.82
8069;BME280;4077;43.702;24.896;2023-04-07T13:34:29;99614.94;;;9.99;61.54
8069;BME280;4077;43.702;24.896;2023-04-07T13:36:55;99617.41;;;9.93;60.56
8069;BME280;4077;43.702;24.896;2023-04-07T13:39:20;99616.81;;;9.56;61.47
8069;BME280;4077;43.702;24.896;2023-04-07T13:41:46;99600.78;;;9.25;61.83
8069;BME280;4077;43.702;24.896;2023-04-07T13:44:11;99612.66;;;9.17;62.27